Tiempo atmosférico en la estación meteorológica de Muñotello, Ávila (1178 m.)



Fecha
DESCASC
Temp. máxima en grados centígrados (hora)
DESCASC
Temp. mínima en grados centígrados (hora)
DESCASC
Temp. media en grados centígrados
DESCASC
Racha de viento máxima en m/sg (hora)
DESCASC
Velocidad máxima media en intervalos de 10 minutos(hora)
DESCASC
Precipitaciones diarias en mm
DESCASC
Precipitaciones de 00:00 a 06:00 en mm
DESCASC
Precipitaciones de 06:00 a 12:00 en mm
DESCASC
Precipitaciones de 12:00 a 18:00 en mm
DESCASC
Precipitaciones de 18:00 a 24:00 en mm
DESCASC
18-11-2019 4.8 (15:10) 0.6 (23:20) 2.7 11.67 (00:30) 7.5 (00:10) 0 0 0 0 0
17-11-2019 9.2 (12:20) 1.1 (01:40) 5.1 16.39 (14:00) 10 (14:20) 10 0 0.6 3.8 5.6
16-11-2019 5.2 (15:10) -0.5 (08:30) 2.3 9.72 (23:10) 5.83 (23:30) 0 0 0 0 0
15-11-2019 3.4 (14:50) -0.6 (07:30) 1.4 15.56 (02:00) 9.17 (02:00) 4.2 0.2 3 1 0
14-11-2019 6.2 (02:30) 0.4 (00:00) 3.3 21.39 (02:50) 14.17 (02:50) 11.2 2.6 6.4 2 0.2
13-11-2019 12 (15:30) 5.9 (00:00) 9 23.33 (04:30) 13.89 (00:10) 9.8 5.2 4.6 0 0
12-11-2019 8.7 (15:20) 2 (00:00) 5.3 20.56 (23:10) 12.5 (23:59) 1.2 0 0 0 1.2
11-11-2019 9.9 (13:30) 2.4 (23:00) 6.1 14.44 (12:20) 8.89 (12:10) 0 0 0 0 0
10-11-2019 5.3 (00:00) 1.3 (00:00) 3.3 14.72 (02:10) 9.72 (02:10) 2.8 0 0 2.4 0.4
09-11-2019 8.8 (16:00) 1.7 (00:00) 5.3 19.44 (14:40) 11.39 (14:20) 11.6 0 0 11.6 0
08-11-2019 6.6 (15:50) 0.8 (00:00) 3.7 14.17 (04:10) 8.61 (04:20) 0 0 0 0 0
07-11-2019 9.2 (00:00) 1.6 (00:00) 5.4 16.94 (09:20) 12.22 (09:20) 5.6 4 0 1.2 0.4
06-11-2019 9.6 (14:30) 4.5 (00:00) 7.1 13.06 (03:30) 9.44 (03:00) 0 0 0 0 0
05-11-2019 8.6 (15:10) 4.2 (00:00) 6.4 16.11 (04:20) 10.28 (02:30) 2.2 1 0.4 0.6 0.2
04-11-2019 15.1 (15:10) 4.9 (00:00) 10 25 (11:30) 13.33 (15:30) 11.8 0 0 4.8 7
03-11-2019 11.4 (20:10) 8.2 (00:00) 9.8 24.44 (03:40) 15 (03:50) 5.8 1.2 4.6 0 0
02-11-2019 15.9 (14:30) 10.2 (00:00) 13 18.61 (23:59) 10.28 (23:59) 2.4 2 0.2 0.2 0
01-11-2019 17.1 (11:00) 12.7 (00:00) 14.9 16.39 (15:10) 10.28 (15:10) 3 0 0 0.8 2.2
31-10-2019 17.6 (13:00) 11.8 (07:50) 14.7 11.94 (16:30) 7.78 (04:30) 0.4 0 0 0 0.4
30-10-2019 15.7 (11:50) 8.5 (00:00) 12.1 11.39 (22:20) 6.39 (23:40) 0 0 0 0 0
29-10-2019 16.7 (15:10) 8.3 (00:00) 12.5 8.61 (15:50) 5.83 (14:10) 0.2 0 0.2 0 0
28-10-2019 20 (14:10) 9.2 (00:00) 14.6 6.67 (17:00) 4.17 (15:50) 0 0 0 0 0
27-10-2019 19.6 (15:00) 7.9 (00:00) 13.8 4.17 (18:30) 2.78 (18:30) 0 0 0 0 0
26-10-2019 21.3 (17:10) 6.5 (00:00) 13.9 7.5 (18:30) 4.72 (18:40) 0 0 0 0 0
25-10-2019 20 (17:40) 4.2 (00:00) 12.1 4.17 (19:40) 2.78 (20:50) 0 0 0 0 0
24-10-2019 14.5 (17:10) 5.1 (00:00) 9.8 12.78 (08:40) 8.89 (08:30) 0.8 0.6 0.2 0 0
23-10-2019 7 (14:10) 4 (00:00) 5.5 10.56 (14:50) 7.78 (14:40) 8 2 4.4 0.8 0.8
22-10-2019 10 (13:40) 0.4 (00:00) 5.2 7.22 (15:30) 5.28 (15:40) 4.4 0 0 0 4.4

Gráficas

Temp. máximas Temp. mínimas Temp. medias Precipitaciones Rachas de viento máximas Velocidades máximas media en intervalos de 10 minutos

Datos horarios

Fecha y hora oficial Temperatura (ºC) Velocidad del viento (km/h) Dirección del viento Racha (km/h) Dirección de racha Precipitación (mm) Presión (hPa) Tendencia (hPa) Humedad (%)
2019-11-20 23:00:00 2.3 2 Este 8 Sur 0 -- -- 90
2019-11-20 22:00:00 2.5 3 Nordeste 12 Oeste 0 -- -- 92
2019-11-20 21:00:00 2.4 3 Este 8 Sur 0 -- -- 93
2019-11-20 20:00:00 3.5 2 Sudeste 9 Sur 0 -- -- 92
2019-11-20 19:00:00 3.9 3 Oeste 6 Este 0 -- -- 90
2019-11-20 18:00:00 4.6 0 Calma 14 Este 0.2 -- -- 88
2019-11-20 17:00:00 5.4 7 Este 12 Este 0 -- -- 82
2019-11-20 16:00:00 5.3 8 Este 13 Nordeste 0 -- -- 83
2019-11-20 15:00:00 5.2 5 Nordeste 11 Noroeste 0 -- -- 84
2019-11-20 14:00:00 5.6 6 Norte 27 Sudeste 0 -- -- 82
2019-11-20 13:00:00 5.3 19 Sudeste 44 Sudeste 0 -- -- 75
2019-11-20 12:00:00 4.9 4 Oeste 13 Oeste 0 -- -- 83
2019-11-20 11:00:00 4.3 4 Noroeste 9 Noroeste 0 -- -- 83
2019-11-20 10:00:00 3.2 0 Calma 7 Noroeste 0 -- -- 86
2019-11-20 09:00:00 2.2 0 Calma 5 Oeste 0 -- -- 90
2019-11-20 08:00:00 1.9 0 Calma 3 Sudeste 0 -- -- 91
2019-11-20 07:00:00 2.3 0 Calma 4 Oeste 0 -- -- 89
2019-11-20 06:00:00 2.6 2 Oeste 6 Sur 0 -- -- 85
2019-11-20 05:00:00 2.2 3 Sur 7 Oeste 0 -- -- 88
2019-11-20 04:00:00 2.3 4 Oeste 6 Sur 0 -- -- 88
2019-11-20 03:00:00 2.3 0 Calma 4 Noroeste 0 -- -- 85
2019-11-20 02:00:00 2.2 0 Calma 6 Sur 0 -- -- 83
2019-11-20 01:00:00 2.6 0 Calma 4 Sur 0 -- -- 80
2019-11-20 00:00:00 3 3 Sudoeste 5 Sur 0 -- -- 83
2019-11-19 23:00:00 3.4 2 Sur 6 Oeste 0 -- -- 80
2019-11-19 22:00:00 3.5 2 Noroeste 4 Noroeste 0 -- -- 79
2019-11-19 21:00:00 3.4 0 Calma 3 Nordeste 0 -- -- 80
2019-11-19 20:00:00 3.9 0 Calma 4 Sur 0 -- -- 74
2019-11-19 19:00:00 4.1 0 Calma 8 Sur 0 -- -- 72
2019-11-19 18:00:00 4.5 4 Sur 11 Oeste 0 -- -- 71
2019-11-19 17:00:00 5.6 7 Oeste 21 Oeste 0 -- -- 63
2019-11-19 16:00:00 6.2 13 Oeste 21 Oeste 0 -- -- 62
2019-11-19 15:00:00 6.5 15 Oeste 23 Oeste 0 -- -- 58
2019-11-19 14:00:00 6.5 13 Oeste 22 Oeste 0 -- -- 60
2019-11-19 13:00:00 7 5 Norte 17 Noroeste 0 -- -- 57
2019-11-19 12:00:00 5.3 2 Nordeste 5 Nordeste 0 -- -- 70
2019-11-19 11:00:00 2.6 0 Calma 4 Oeste 0 -- -- 85
2019-11-19 10:00:00 0.9 2 Oeste 4 Oeste 0 -- -- 86
2019-11-19 09:00:00 -0.1 4 Oeste 5 Oeste 0 -- -- 87
2019-11-19 08:00:00 0 0 Calma 7 Sudoeste 0 -- -- 88
2019-11-19 07:00:00 0.7 4 Sur 7 Sudoeste 0 -- -- 81
2019-11-19 06:00:00 0.7 6 Sudoeste 12 Sur 0 -- -- 81
2019-11-19 05:00:00 0.3 4 Sudoeste 10 Sudoeste 0 -- -- 83
2019-11-19 04:00:00 -0.2 0 Calma 3 Sur 0 -- -- 87
2019-11-19 03:00:00 -0.4 0 Calma 10 Sur 0 -- -- 87
2019-11-19 02:00:00 1.3 7 Sudoeste 12 Sudoeste 0 -- -- 83
2019-11-19 01:00:00 1.2 8 Sur 14 Sur 0 -- -- 82
2019-11-19 00:00:00 0.9 2 Oeste 9 Sur 0 -- -- 83
2019-11-18 23:00:00 0.9 0 Calma 11 Sur 0 -- -- 81
2019-11-18 22:00:00 1.4 0 Calma 13 Sur 0 -- -- 77
2019-11-18 21:00:00 2.1 11 Sur 15 Sur 0 -- -- 78
2019-11-18 20:00:00 2.5 3 Oeste 10 Sudoeste 0 -- -- 77
2019-11-18 19:00:00 3.5 5 Sur 12 Sudoeste 0 -- -- 79
2019-11-18 18:00:00 3.9 6 Oeste 15 Noroeste 0 -- -- 79
2019-11-18 17:00:00 4.4 12 Noroeste 18 Norte 0 -- -- 75
2019-11-18 16:00:00 4.7 10 Noroeste 15 Noroeste 0 -- -- 73
2019-11-18 15:00:00 4.6 10 Noroeste 22 Oeste 0 -- -- 74
2019-11-18 14:00:00 4.4 13 Noroeste 23 Oeste 0 -- -- 74
2019-11-18 13:00:00 4.3 15 Noroeste 25 Oeste 0 -- -- 80
2019-11-18 12:00:00 3.2 12 Oeste 24 Oeste 0 -- -- 82
2019-11-18 11:00:00 2.7 15 Oeste 24 Oeste 0 -- -- 87
2019-11-18 10:00:00 1.8 13 Oeste 23 Oeste 0 -- -- 90
2019-11-18 09:00:00 1.5 15 Oeste 21 Oeste 0 -- -- 92
2019-11-18 08:00:00 1.4 14 Oeste 21 Oeste 0 -- -- 91
2019-11-18 07:00:00 1.5 10 Oeste 16 Oeste 0 -- -- 91
2019-11-18 06:00:00 1.6 0 Calma 20 Noroeste 0 -- -- 90
2019-11-18 05:00:00 2.2 19 Noroeste 27 Noroeste 0 -- -- 89
2019-11-18 04:00:00 2.2 17 Oeste 30 Oeste 0 -- -- 90
2019-11-18 03:00:00 2.2 17 Oeste 27 Oeste 0 -- -- 91
2019-11-18 02:00:00 2 18 Oeste 30 Oeste 0 -- -- 91
2019-11-18 01:00:00 2.6 14 Oeste 42 Sudoeste 0 -- -- 86
2019-11-18 00:00:00 2.5 23 Oeste 44 Oeste 0 -- -- 85
2019-11-17 23:00:00 2.9 25 Oeste 43 Oeste 0 -- -- 82
2019-11-17 22:00:00 3.1 21 Oeste 41 Oeste 0 -- -- 82
2019-11-17 21:00:00 4 26 Oeste 42 Oeste 0 -- -- 86
2019-11-17 20:00:00 4.7 25 Oeste 44 Oeste 2.6 -- -- 88
2019-11-17 19:00:00 5.8 20 Oeste 45 Sudoeste 3 -- -- 91
2019-11-17 18:00:00 6.7 21 Oeste 44 Sudoeste 1.2 -- -- 91
2019-11-17 17:00:00 6.9 17 Oeste 39 Oeste 2 -- -- 92
2019-11-17 16:00:00 7.4 21 Oeste 54 Oeste 0.6 -- -- 88
2019-11-17 15:00:00 8.1 33 Oeste 55 Sudoeste 0 -- -- 84
2019-11-17 14:00:00 8.2 33 Oeste 59 Oeste 0 -- -- 84
2019-11-17 13:00:00 8.9 29 Oeste 55 Oeste 0 -- -- 84
2019-11-17 12:00:00 7.7 33 Sudoeste 53 Sudoeste 0.6 -- -- 83
2019-11-17 11:00:00 7.4 24 Oeste 42 Oeste 0 -- -- 83
2019-11-17 10:00:00 6.8 25 Oeste 42 Oeste 0 -- -- 85
2019-11-17 09:00:00 5 11 Oeste 21 Oeste 0 -- -- 93
2019-11-17 08:00:00 3.5 10 Oeste 22 Oeste 0 -- -- 92
2019-11-17 07:00:00 2.8 5 Noroeste 16 Noroeste 0 -- -- 91
2019-11-17 06:00:00 1.9 3 Este 13 Oeste 0 -- -- 89
2019-11-17 05:00:00 1.2 0 Calma 11 Oeste 0 -- -- 87
2019-11-17 04:00:00 1.2 4 Sudeste 26 Oeste 0 -- -- 83
2019-11-17 03:00:00 1.4 18 Oeste 39 Oeste 0 -- -- 82
2019-11-17 02:00:00 1.1 22 Oeste 31 Oeste 0 -- -- 80
2019-11-17 01:00:00 1.4 13 Oeste 37 Oeste 0 -- -- 79
2019-11-17 00:00:00 2 15 Oeste 35 Sudoeste 0 -- -- 70
2019-11-16 23:00:00 1.6 11 Oeste 31 Oeste 0 -- -- 75
2019-11-16 22:00:00 1.5 12 Oeste 32 Oeste 0 -- -- 76
2019-11-16 21:00:00 2 17 Oeste 27 Oeste 0 -- -- 75
2019-11-16 20:00:00 1.6 17 Oeste 28 Oeste 0 -- -- 79
2019-11-16 19:00:00 1.5 15 Oeste 29 Oeste 0 -- -- 79
2019-11-16 18:00:00 2.2 19 Oeste 30 Oeste 0 -- -- 78
2019-11-16 17:00:00 4.2 10 Oeste 25 Sudoeste 0 -- -- 68
2019-11-16 16:00:00 5.2 13 Oeste 31 Oeste 0 -- -- 65
2019-11-16 15:00:00 5.1 19 Oeste 34 Oeste 0 -- -- 61
2019-11-16 14:00:00 4.9 17 Oeste 28 Oeste 0 -- -- 66
2019-11-16 13:00:00 3.9 15 Noroeste 24 Noroeste 0 -- -- 63
2019-11-16 12:00:00 3.4 16 Oeste 26 Oeste 0 -- -- 70
2019-11-16 11:00:00 3 13 Oeste 22 Oeste 0 -- -- 72
2019-11-16 10:00:00 2.2 14 Oeste 20 Oeste 0 -- -- 72
2019-11-16 09:00:00 0.4 9 Sudoeste 16 Oeste 0 -- -- 79
2019-11-16 08:00:00 0 5 Sudoeste 19 Oeste 0 -- -- 83
2019-11-16 07:00:00 0 13 Oeste 26 Oeste 0 -- -- 85
2019-11-16 06:00:00 0.3 15 Oeste 24 Oeste 0 -- -- 84
2019-11-16 05:00:00 0.3 14 Oeste 25 Noroeste 0 -- -- 84
2019-11-16 04:00:00 0.2 11 Oeste 23 Oeste 0 -- -- 85
2019-11-16 03:00:00 -0.1 13 Oeste 33 Oeste 0 -- -- 88
2019-11-16 02:00:00 0.4 16 Oeste 29 Oeste 0 -- -- 88
2019-11-16 01:00:00 0.4 15 Oeste 30 Oeste 0 -- -- 89
2019-11-16 00:00:00 0.5 17 Oeste 32 Oeste 0 -- -- 88
2019-11-15 23:00:00 0.4 17 Oeste 31 Oeste 0 -- -- 89
2019-11-15 22:00:00 0.9 21 Oeste 40 Oeste 0 -- -- 85
2019-11-15 21:00:00 1.1 23 Oeste 38 Oeste 0 -- -- 82
2019-11-15 20:00:00 1.4 19 Oeste 32 Oeste 0 -- -- 83
2019-11-15 19:00:00 1.8 19 Oeste 32 Oeste 0 -- -- 80
2019-11-15 18:00:00 1.8 13 Oeste 30 Oeste 0 -- -- 78
2019-11-15 17:00:00 2.3 14 Oeste 29 Oeste 0 -- -- 78
2019-11-15 16:00:00 2.8 20 Oeste 35 Oeste 0 -- -- 78
2019-11-15 15:00:00 3.1 20 Oeste 36 Oeste 0 -- -- 75
2019-11-15 14:00:00 2.4 22 Oeste 37 Sudoeste 0 -- -- 80
2019-11-15 13:00:00 2.1 17 Oeste 39 Sudoeste 1 -- -- 81
2019-11-15 12:00:00 2.1 23 Oeste 37 Oeste 1.8 -- -- 79
2019-11-15 11:00:00 1.6 23 Oeste 37 Oeste 1 -- -- 79
2019-11-15 10:00:00 0.5 18 Oeste 31 Oeste 0 -- -- 88
2019-11-15 09:00:00 -0.3 17 Oeste 30 Sudoeste 0 -- -- 92
2019-11-15 08:00:00 -0.6 19 Oeste 37 Oeste 0 -- -- 94
2019-11-15 07:00:00 -0.5 20 Oeste 38 Oeste 0.2 -- -- 94
2019-11-15 06:00:00 -0.5 18 Oeste 38 Oeste 0 -- -- 94
2019-11-15 05:00:00 -0.5 23 Oeste 42 Oeste 0 -- -- 95
2019-11-15 04:00:00 -0.4 18 Oeste 40 Oeste 0 -- -- 95
2019-11-15 03:00:00 -0.2 28 Oeste 47 Oeste 0 -- -- 95
2019-11-15 02:00:00 0.3 33 Oeste 56 Oeste 0 -- -- 93
2019-11-15 01:00:00 0.6 27 Oeste 51 Oeste 0.2 -- -- 91
2019-11-15 00:00:00 0.7 33 Oeste 48 Oeste 0 -- -- 92
2019-11-14 23:00:00 0.4 29 Oeste 49 Oeste 0 -- -- 94
2019-11-14 22:00:00 1.8 31 Oeste 57 Oeste 0 -- -- 85
2019-11-14 21:00:00 2.2 34 Oeste 65 Oeste 0.2 -- -- 84
2019-11-14 20:00:00 2.3 37 Oeste 65 Oeste 0 -- -- 87
2019-11-14 19:00:00 2.4 42 Oeste 69 Oeste 0 -- -- 86
2019-11-14 18:00:00 2.7 39 Oeste 65 Oeste 0.2 -- -- 86
2019-11-14 17:00:00 2.1 34 Oeste 66 Oeste 0.4 -- -- 90
2019-11-14 16:00:00 2.2 41 Oeste 71 Sudoeste 1 -- -- 88
2019-11-14 15:00:00 1.4 26 Oeste 53 Sudoeste 0.2 -- -- 89
2019-11-14 14:00:00 3.2 26 Oeste 57 Sudoeste 0 -- -- 80
2019-11-14 13:00:00 3 29 Sudoeste 49 Oeste 0.2 -- -- 79
2019-11-14 12:00:00 2.7 24 Oeste 42 Oeste 0.4 -- -- 84
2019-11-14 11:00:00 1.8 21 Oeste 45 Oeste 1.4 -- -- 85
2019-11-14 10:00:00 1.1 18 Oeste 36 Oeste 1.6 -- -- 85
2019-11-14 09:00:00 0.9 18 Oeste 37 Oeste 0.2 -- -- 89
2019-11-14 08:00:00 0.4 5 Oeste 22 Oeste 0.4 -- -- 95
2019-11-14 07:00:00 0.9 13 Oeste 57 Oeste 2.4 -- -- 92
2019-11-14 06:00:00 4.4 33 Oeste 62 Oeste 2 -- -- 88
2019-11-14 05:00:00 5.1 29 Oeste 53 Sudoeste 0.6 -- -- 85
2019-11-14 04:00:00 5.5 43 Sudoeste 74 Sudoeste 0 -- -- 79
2019-11-14 03:00:00 5.3 45 Sudoeste 77 Sudoeste 0 -- -- 76
2019-11-14 02:00:00 4.7 30 Oeste 71 Sudoeste 0 -- -- 80
2019-11-14 01:00:00 5 30 Oeste 58 Oeste 0 -- -- 82
2019-11-14 00:00:00 5.9 41 Oeste 59 Sudoeste 0 -- -- 84
2019-11-13 23:00:00 7.5 32 Oeste 62 Sudoeste 0 -- -- 78
2019-11-13 22:00:00 8.8 35 Oeste 63 Oeste 0 -- -- 71
2019-11-13 21:00:00 9.1 36 Sudoeste 57 Sudoeste 0 -- -- 74
2019-11-13 20:00:00 9.2 31 Oeste 50 Oeste 0 -- -- 72
2019-11-13 19:00:00 8.9 17 Oeste 37 Oeste 0 -- -- 78
2019-11-13 18:00:00 9.3 19 Oeste 37 Oeste 0 -- -- 76
2019-11-13 17:00:00 10.6 18 Oeste 40 Oeste 0 -- -- 72
2019-11-13 16:00:00 11.7 22 Oeste 37 Sudoeste 0 -- -- 68
2019-11-13 15:00:00 11.9 16 Oeste 29 Oeste 0 -- -- 74
2019-11-13 14:00:00 10.5 14 Oeste 27 Oeste 0 -- -- 78
2019-11-13 13:00:00 9.4 10 Oeste 20 Oeste 0 -- -- 84
2019-11-13 12:00:00 8.2 11 Oeste 29 Noroeste 0 -- -- 87
2019-11-13 11:00:00 8.4 23 Noroeste 36 Oeste 0.6 -- -- 91
2019-11-13 10:00:00 8.8 24 Oeste 48 Oeste 0.8 -- -- 92
2019-11-13 09:00:00 9 29 Oeste 55 Oeste 0 -- -- 91
2019-11-13 08:00:00 9 34 Oeste 62 Oeste 0.4 -- -- 91
2019-11-13 07:00:00 9 33 Oeste 57 Oeste 2.8 -- -- 90
2019-11-13 06:00:00 9.1 26 Oeste 65 Sudoeste 1 -- -- 91
2019-11-13 05:00:00 9.5 38 Oeste 84 Oeste 0.2 -- -- 87
2019-11-13 04:00:00 9 30 Oeste 60 Sudoeste 0.6 -- -- 89
2019-11-13 03:00:00 9.2 43 Sudoeste 69 Sudoeste 1.2 -- -- 86
2019-11-13 02:00:00 9 42 Oeste 74 Oeste 0.4 -- -- 87
2019-11-13 01:00:00 8.7 40 Oeste 78 Oeste 1.8 -- -- 87
2019-11-13 00:00:00 8.5 45 Sudoeste 74 Sudoeste 0.6 -- -- 86
2019-11-12 23:00:00 8 35 Oeste 64 Oeste 0.4 -- -- 88
2019-11-12 22:00:00 8.1 33 Oeste 68 Oeste 0.2 -- -- 86
2019-11-12 21:00:00 8.2 33 Oeste 68 Sudoeste 0 -- -- 84
2019-11-12 20:00:00 8 30 Oeste 66 Sudoeste 0 -- -- 82
2019-11-12 19:00:00 7.8 31 Oeste 50 Oeste 0 -- -- 83
2019-11-12 18:00:00 7.5 24 Oeste 39 Oeste 0 -- -- 83
2019-11-12 17:00:00 8 18 Oeste 39 Oeste 0 -- -- 74
2019-11-12 16:00:00 8.1 18 Oeste 34 Oeste 0 -- -- 66
2019-11-12 15:00:00 8.3 14 Oeste 31 Oeste 0 -- -- 63
2019-11-12 14:00:00 8.4 14 Oeste 28 Oeste 0 -- -- 61
2019-11-12 13:00:00 7.8 16 Oeste 27 Oeste 0 -- -- 67
2019-11-12 12:00:00 7.1 6 Noroeste 20 Oeste 0 -- -- 66
2019-11-12 11:00:00 5.7 8 Oeste 14 Oeste 0 -- -- 69
2019-11-12 10:00:00 4.7 5 Noroeste 18 Noroeste 0 -- -- 78
2019-11-12 09:00:00 3.5 2 Este 17 Noroeste 0 -- -- 84
2019-11-12 08:00:00 2.4 8 Oeste 13 Oeste 0 -- -- 90
2019-11-12 07:00:00 2.2 2 Sudoeste 6 Sur 0 -- -- 92
2019-11-12 06:00:00 2.4 3 Sudoeste 14 Oeste 0 -- -- 91
2019-11-12 05:00:00 2.1 10 Oeste 14 Oeste 0 -- -- 92
2019-11-12 04:00:00 2.8 2 Sur 11 Oeste 0 -- -- 91
2019-11-12 03:00:00 3.3 6 Oeste 9 Oeste 0 -- -- 88
2019-11-12 02:00:00 4.3 7 Sudoeste 13 Oeste 0 -- -- 85
2019-11-12 01:00:00 3.8 8 Oeste 18 Oeste 0 -- -- 86
2019-11-12 00:00:00 3.3 6 Oeste 13 Sur 0 -- -- 90
2019-11-11 23:00:00 2.4 3 Oeste 11 Oeste 0 -- -- 90
2019-11-11 22:00:00 5 8 Oeste 12 Oeste 0 -- -- 81
2019-11-11 21:00:00 6.2 3 Oeste 15 Noroeste 0 -- -- 77
2019-11-11 20:00:00 7.2 6 Noroeste 18 Oeste 0 -- -- 71
2019-11-11 19:00:00 7.7 7 Sudoeste 20 Norte 0 -- -- 79
2019-11-11 18:00:00 8.7 11 Noroeste 24 Oeste 0 -- -- 82
2019-11-11 17:00:00 9.3 13 Oeste 28 Oeste 0 -- -- 78
2019-11-11 16:00:00 9.7 13 Noroeste 29 Oeste 0 -- -- 79
2019-11-11 15:00:00 9.3 15 Oeste 36 Noroeste 0 -- -- 85
2019-11-11 14:00:00 9.6 18 Oeste 37 Oeste 0 -- -- 88
2019-11-11 13:00:00 9.5 26 Oeste 52 Oeste 0 -- -- 86
2019-11-11 12:00:00 9 30 Oeste 44 Oeste 0 -- -- 86
2019-11-11 11:00:00 9 28 Oeste 45 Oeste 0 -- -- 84
2019-11-11 10:00:00 8.1 28 Oeste 43 Oeste 0 -- -- 88
2019-11-11 09:00:00 7.3 18 Oeste 42 Oeste 0 -- -- 89
2019-11-11 08:00:00 6.4 23 Oeste 39 Oeste 0 -- -- 90
2019-11-11 07:00:00 5 13 Noroeste 25 Oeste 0 -- -- 88
2019-11-11 06:00:00 4.7 5 Noroeste 18 Oeste 0 -- -- 86
2019-11-11 05:00:00 4.2 8 Oeste 16 Oeste 0 -- -- 87
2019-11-11 04:00:00 3.7 0 Calma 14 Sur 0 -- -- 89
2019-11-11 03:00:00 3.4 4 Sudoeste 16 Oeste 0 -- -- 90
2019-11-11 02:00:00 3.3 5 Noroeste 20 Oeste 0 -- -- 90
2019-11-11 01:00:00 3.4 12 Oeste 28 Sudoeste 0 -- -- 87
2019-11-11 00:00:00 3.1 13 Oeste 30 Oeste 0 -- -- 89
2019-11-10 23:00:00 3 19 Oeste 37 Oeste 0 -- -- 90
2019-11-10 22:00:00 2.9 19 Oeste 37 Oeste 0 -- -- 91
2019-11-10 21:00:00 3 17 Oeste 35 Oeste 0 -- -- 91
2019-11-10 20:00:00 3.1 22 Oeste 36 Oeste 0.2 -- -- 91
2019-11-10 19:00:00 2.9 19 Noroeste 46 Oeste 0.2 -- -- 91
2019-11-10 18:00:00 3.4 30 Oeste 44 Oeste 0.2 -- -- 87
2019-11-10 17:00:00 3.2 29 Oeste 45 Oeste 0.4 -- -- 90
2019-11-10 16:00:00 3.3 29 Oeste 49 Oeste 0.8 -- -- 87
2019-11-10 15:00:00 3.4 24 Oeste 46 Oeste 0.6 -- -- 88
2019-11-10 14:00:00 2.9 27 Oeste 46 Oeste 0.4 -- -- 87
2019-11-10 13:00:00 3.6 30 Oeste 48 Oeste 0 -- -- 80
2019-11-10 12:00:00 3.3 26 Oeste 49 Oeste 0 -- -- 84
2019-11-10 11:00:00 2.8 29 Oeste 44 Oeste 0 -- -- 87
2019-11-10 10:00:00 2.4 28 Oeste 46 Oeste 0 -- -- 85
2019-11-10 09:00:00 2 31 Oeste 47 Oeste 0 -- -- 85
2019-11-10 08:00:00 1.6 23 Oeste 38 Oeste 0 -- -- 82
2019-11-10 07:00:00 1.3 20 Oeste 34 Oeste 0 -- -- 87
2019-11-10 06:00:00 1.9 18 Oeste 35 Oeste 0 -- -- 86
2019-11-10 05:00:00 1.9 23 Oeste 43 Oeste 0 -- -- 84
2019-11-10 04:00:00 2.7 29 Oeste 46 Oeste 0 -- -- 83
2019-11-10 03:00:00 3.7 30 Oeste 53 Oeste 0 -- -- 85
2019-11-10 02:00:00 4.4 34 Oeste 52 Noroeste 0 -- -- 84
2019-11-10 01:00:00 4.6 28 Oeste 48 Oeste 0 -- -- 85
2019-11-10 00:00:00 5.3 29 Oeste 53 Oeste 0 -- -- 81
2019-11-09 23:00:00 5.3 31 Oeste 58 Oeste 0 -- -- 80
2019-11-09 22:00:00 6 36 Oeste 51 Oeste 0 -- -- 83
2019-11-09 21:00:00 6.5 35 Oeste 56 Oeste 0 -- -- 84
2019-11-09 20:00:00 6.7 32 Oeste 52 Oeste 0 -- -- 87
2019-11-09 19:00:00 7 29 Oeste 50 Oeste 0 -- -- 92
2019-11-09 18:00:00 7.5 31 Oeste 67 Sudoeste 0.2 -- -- 90
2019-11-09 17:00:00 8.1 32 Oeste 58 Sudoeste 0.2 -- -- 88
2019-11-09 16:00:00 8.8 26 Oeste 54 Sudoeste 3.6 -- -- 87
2019-11-09 15:00:00 8.3 21 Oeste 70 Sudoeste 5 -- -- 87
2019-11-09 14:00:00 7.9 32 Oeste 59 Oeste 2.4 -- -- 86
2019-11-09 13:00:00 8.3 29 Oeste 48 Oeste 0.2 -- -- 87
2019-11-09 12:00:00 7.7 20 Oeste 34 Oeste 0 -- -- 84
2019-11-09 11:00:00 6.9 19 Oeste 32 Sudoeste 0 -- -- 76
2019-11-09 10:00:00 5.4 16 Oeste 40 Oeste 0 -- -- 66
2019-11-09 09:00:00 3.4 21 Oeste 34 Oeste 0 -- -- 73
2019-11-09 08:00:00 1.9 18 Noroeste 39 Oeste 0 -- -- 82
2019-11-09 07:00:00 2.1 22 Oeste 40 Oeste 0 -- -- 81
2019-11-09 06:00:00 2.5 26 Oeste 40 Oeste 0 -- -- 79
2019-11-09 05:00:00 2.7 24 Oeste 41 Oeste 0 -- -- 80
2019-11-09 04:00:00 2.5 19 Oeste 35 Oeste 0 -- -- 79
2019-11-09 03:00:00 2.8 21 Oeste 35 Oeste 0 -- -- 81
2019-11-09 02:00:00 2.8 17 Oeste 36 Oeste 0 -- -- 80
2019-11-09 01:00:00 3 21 Oeste 37 Oeste 0 -- -- 78
2019-11-09 00:00:00 3.2 20 Oeste 37 Oeste 0 -- -- 80
2019-11-08 23:00:00 3.2 16 Oeste 34 Oeste 0 -- -- 80
2019-11-08 22:00:00 3.5 22 Oeste 44 Sudoeste 0 -- -- 80
2019-11-08 21:00:00 4 16 Oeste 43 Oeste 0 -- -- 78
2019-11-08 20:00:00 4 22 Oeste 44 Oeste 0 -- -- 77
2019-11-08 19:00:00 4.5 24 Oeste 37 Oeste 0 -- -- 75
2019-11-08 18:00:00 4.5 15 Oeste 36 Oeste 0 -- -- 75
2019-11-08 17:00:00 5.2 17 Oeste 36 Oeste 0 -- -- 73
2019-11-08 16:00:00 6.5 22 Oeste 42 Oeste 0 -- -- 67
2019-11-08 15:00:00 6.1 26 Oeste 49 Oeste 0 -- -- 64
2019-11-08 14:00:00 6 26 Oeste 41 Oeste 0 -- -- 60
2019-11-08 13:00:00 5.6 20 Oeste 38 Oeste 0 -- -- 66
2019-11-08 12:00:00 4.6 21 Oeste 41 Oeste 0 -- -- 67
2019-11-08 11:00:00 3.3 23 Oeste 43 Oeste 0 -- -- 79
2019-11-08 10:00:00 1.4 26 Oeste 40 Oeste 0 -- -- 87
2019-11-08 09:00:00 1.1 23 Oeste 41 Oeste 0 -- -- 86
2019-11-08 08:00:00 1 21 Oeste 44 Oeste 0 -- -- 84
2019-11-08 07:00:00 0.8 21 Oeste 46 Oeste 0 -- -- 84
2019-11-08 06:00:00 0.8 19 Oeste 44 Oeste 0 -- -- 83
2019-11-08 05:00:00 0.8 27 Oeste 51 Oeste 0 -- -- 81
2019-11-08 04:00:00 1 30 Oeste 43 Oeste 0 -- -- 83
2019-11-08 03:00:00 1.4 21 Oeste 44 Oeste 0 -- -- 82
2019-11-08 02:00:00 1.6 31 Oeste 47 Oeste 0 -- -- 79
2019-11-08 01:00:00 1.8 28 Oeste 46 Sudoeste 0 -- -- 75
2019-11-08 00:00:00 1.6 23 Oeste 43 Oeste 0 -- -- 84
2019-11-07 23:00:00 1.7 17 Oeste 41 Oeste 0 -- -- 81
2019-11-07 22:00:00 2.2 20 Oeste 39 Sudoeste 0 -- -- 84
2019-11-07 21:00:00 2.4 23 Oeste 39 Oeste 0 -- -- 84
2019-11-07 20:00:00 2.5 23 Oeste 45 Oeste 0.4 -- -- 90
2019-11-07 19:00:00 3.4 24 Oeste 50 Oeste 0 -- -- 83
2019-11-07 18:00:00 3.5 23 Oeste 42 Oeste 0 -- -- 85
2019-11-07 17:00:00 3.4 28 Oeste 42 Noroeste 0.8 -- -- 86
2019-11-07 16:00:00 3.6 21 Oeste 47 Sudoeste 0.4 -- -- 87
2019-11-07 15:00:00 6.3 29 Oeste 49 Oeste 0 -- -- 64
2019-11-07 14:00:00 6.6 27 Oeste 47 Oeste 0 -- -- 66
2019-11-07 13:00:00 6.2 33 Oeste 59 Oeste 0 -- -- 67
2019-11-07 12:00:00 5.4 36 Oeste 60 Oeste 0 -- -- 69
2019-11-07 11:00:00 5.1 35 Oeste 59 Oeste 0 -- -- 76
2019-11-07 10:00:00 4.4 34 Oeste 61 Oeste 0 -- -- 81
2019-11-07 09:00:00 4.4 38 Oeste 58 Oeste 0 -- -- 79
2019-11-07 08:00:00 5.4 34 Oeste 50 Oeste 0 -- -- 88
2019-11-07 07:00:00 7.1 31 Oeste 46 Oeste 0 -- -- 86
2019-11-07 06:00:00 7.7 31 Oeste 50 Oeste 0.6 -- -- 87
2019-11-07 05:00:00 8.4 28 Oeste 49 Oeste 1.8 -- -- 91
2019-11-07 04:00:00 8.2 18 Oeste 35 Oeste 0.8 -- -- 94
2019-11-07 03:00:00 8.1 15 Oeste 35 Oeste 0.4 -- -- 93
2019-11-07 02:00:00 9 13 Oeste 31 Sudoeste 0 -- -- 88
2019-11-07 01:00:00 9 13 Oeste 45 Sudoeste 0.4 -- -- 87
2019-11-07 00:00:00 9.2 17 Oeste 39 Sudoeste 0 -- -- 84
2019-11-06 23:00:00 9.3 15 Oeste 38 Oeste 0 -- -- 84
2019-11-06 22:00:00 8.7 17 Oeste 31 Sudoeste 0 -- -- 83
2019-11-06 21:00:00 8.4 25 Oeste 43 Oeste 0 -- -- 81
2019-11-06 20:00:00 7.8 26 Noroeste 42 Oeste 0 -- -- 80
2019-11-06 19:00:00 7.8 15 Oeste 39 Sudoeste 0 -- -- 78
2019-11-06 18:00:00 7.3 15 Oeste 31 Sudoeste 0 -- -- 80
2019-11-06 17:00:00 8.3 23 Oeste 37 Oeste 0 -- -- 74
2019-11-06 16:00:00 8.9 22 Oeste 39 Oeste 0 -- -- 66
2019-11-06 15:00:00 9.3 17 Oeste 35 Oeste 0 -- -- 70
2019-11-06 14:00:00 9 21 Oeste 35 Oeste 0 -- -- 69
2019-11-06 13:00:00 8.3 17 Oeste 28 Oeste 0 -- -- 71
2019-11-06 12:00:00 6.9 17 Oeste 29 Oeste 0 -- -- 75
2019-11-06 11:00:00 5.8 20 Oeste 34 Oeste 0 -- -- 76
2019-11-06 10:00:00 5.3 9 Oeste 23 Oeste 0 -- -- 81
2019-11-06 09:00:00 4.7 15 Oeste 29 Oeste 0 -- -- 83
2019-11-06 08:00:00 4.7 19 Oeste 29 Oeste 0 -- -- 83
2019-11-06 07:00:00 4.9 19 Oeste 33 Oeste 0 -- -- 79
2019-11-06 06:00:00 4.6 19 Oeste 39 Oeste 0 -- -- 83
2019-11-06 05:00:00 4.6 23 Oeste 37 Oeste 0 -- -- 84
2019-11-06 04:00:00 4.7 24 Oeste 47 Oeste 0 -- -- 85
2019-11-06 03:00:00 4.8 34 Oeste 45 Oeste 0 -- -- 85
2019-11-06 02:00:00 5.4 24 Oeste 33 Oeste 0 -- -- 83
2019-11-06 01:00:00 5.6 19 Oeste 31 Oeste 0 -- -- 84
2019-11-06 00:00:00 5.8 14 Oeste 25 Sudoeste 0 -- -- 84
2019-11-05 23:00:00 5.8 24 Oeste 44 Oeste 0 -- -- 84
2019-11-05 22:00:00 6.2 23 Oeste 45 Oeste 0.2 -- -- 84
2019-11-05 21:00:00 6.7 27 Oeste 47 Oeste 0 -- -- 83
2019-11-05 20:00:00 6.8 28 Oeste 46 Oeste 0 -- -- 83
2019-11-05 19:00:00 7.1 28 Oeste 55 Oeste 0 -- -- 81
2019-11-05 18:00:00 7.4 27 Oeste 54 Oeste 0 -- -- 80
2019-11-05 17:00:00 7.7 32 Oeste 49 Oeste 0 -- -- 79
2019-11-05 16:00:00 7.5 22 Oeste 55 Oeste 0.4 -- -- 83
2019-11-05 15:00:00 8.3 28 Oeste 48 Oeste 0 -- -- 78
2019-11-05 14:00:00 7.7 30 Oeste 49 Oeste 0.2 -- -- 80
2019-11-05 13:00:00 7.3 29 Oeste 56 Oeste 0 -- -- 83
2019-11-05 12:00:00 7.4 31 Oeste 52 Oeste 0.2 -- -- 84
2019-11-05 11:00:00 6.5 32 Oeste 51 Oeste 0 -- -- 88
2019-11-05 10:00:00 5.9 28 Oeste 45 Oeste 0 -- -- 89
2019-11-05 09:00:00 4.6 19 Oeste 51 Oeste 0 -- -- 90
2019-11-05 08:00:00 4.3 27 Oeste 53 Oeste 0.2 -- -- 88
2019-11-05 07:00:00 4.3 31 Oeste 55 Oeste 0 -- -- 87
2019-11-05 06:00:00 4.4 30 Oeste 51 Oeste 0 -- -- 85
2019-11-05 05:00:00 4.4 27 Oeste 58 Oeste 0.2 -- -- 86
2019-11-05 04:00:00 4.4 32 Oeste 57 Oeste 0.6 -- -- 85
2019-11-05 03:00:00 4.7 31 Oeste 55 Oeste 0.2 -- -- 86
2019-11-05 02:00:00 5.1 33 Oeste 56 Oeste 0 -- -- 83
2019-11-05 01:00:00 5.3 30 Oeste 56 Oeste 0 -- -- 84
2019-11-05 00:00:00 4.9 29 Oeste 51 Oeste 0.8 -- -- 90
2019-11-04 23:00:00 5.5 32 Oeste 63 Oeste 0.4 -- -- 86
2019-11-04 22:00:00 6.8 25 Oeste 49 Oeste 0 -- -- 88
2019-11-04 21:00:00 7.4 23 Oeste 55 Oeste 1.6 -- -- 90
2019-11-04 20:00:00 8.5 26 Oeste 46 Oeste 1.6 -- -- 90
2019-11-04 19:00:00 8.8 23 Oeste 49 Oeste 2.6 -- -- 90
2019-11-04 18:00:00 8.8 29 Oeste 60 Oeste 4.4 -- -- 88
2019-11-04 17:00:00 12.4 32 Sudoeste 69 Sudoeste 0.4 -- -- 75
2019-11-04 16:00:00 13.3 34 Sudoeste 83 Sudoeste 0 -- -- 70
2019-11-04 15:00:00 14.9 43 Sudoeste 71 Sudoeste 0 -- -- 58
2019-11-04 14:00:00 14.3 37 Sudoeste 72 Oeste 0 -- -- 63
2019-11-04 13:00:00 14.1 30 Sudoeste 81 Oeste 0 -- -- 63
2019-11-04 12:00:00 13.6 34 Sudoeste 90 Oeste 0 -- -- 61
2019-11-04 11:00:00 13.3 30 Sudoeste 61 Sudoeste 0 -- -- 63
2019-11-04 10:00:00 12.1 30 Sudoeste 61 Oeste 0 -- -- 63
2019-11-04 09:00:00 10.6 36 Sudoeste 63 Oeste 0 -- -- 67
2019-11-04 08:00:00 9.7 32 Oeste 72 Sudoeste 0 -- -- 74
2019-11-04 07:00:00 10.5 36 Sudoeste 76 Sudoeste 0 -- -- 70
2019-11-04 06:00:00 10.5 38 Sudoeste 65 Sudoeste 0 -- -- 71
2019-11-04 05:00:00 10.2 27 Oeste 63 Oeste 0 -- -- 80
2019-11-04 04:00:00 10.6 33 Oeste 67 Sudoeste 0 -- -- 75
2019-11-04 03:00:00 10.8 27 Sudoeste 55 Sudoeste 0 -- -- 74
2019-11-04 02:00:00 11.5 27 Sudoeste 56 Sudoeste 0 -- -- 77
2019-11-04 01:00:00 11.6 31 Sudoeste 54 Sudoeste 0 -- -- 80
2019-11-04 00:00:00 11 21 Sudoeste 59 Sudoeste 0 -- -- 85
2019-11-03 23:00:00 10.9 33 Sudoeste 55 Sudoeste 0 -- -- 84
2019-11-03 22:00:00 10.8 39 Sudoeste 62 Sudoeste 0 -- -- 83
2019-11-03 21:00:00 10.8 36 Oeste 73 Sudoeste 0 -- -- 80
2019-11-03 20:00:00 11.3 45 Sudoeste 69 Sudoeste 0 -- -- 76
2019-11-03 19:00:00 10.3 31 Oeste 57 Sudoeste 0 -- -- 76
2019-11-03 18:00:00 9.7 22 Oeste 65 Sudoeste 0 -- -- 73
2019-11-03 17:00:00 9.9 33 Oeste 55 Oeste 0 -- -- 70
2019-11-03 16:00:00 9.8 31 Oeste 58 Oeste 0 -- -- 70
2019-11-03 15:00:00 9.8 34 Oeste 60 Oeste 0 -- -- 71
2019-11-03 14:00:00 9.4 37 Oeste 64 Oeste 0 -- -- 73
2019-11-03 13:00:00 9.1 35 Oeste 56 Oeste 0 -- -- 76
2019-11-03 12:00:00 8.6 30 Oeste 60 Oeste 0 -- -- 78
2019-11-03 11:00:00 8.2 33 Oeste 64 Oeste 0 -- -- 81
2019-11-03 10:00:00 8.3 36 Oeste 64 Oeste 0 -- -- 82
2019-11-03 09:00:00 8.8 38 Oeste 77 Oeste 0.8 -- -- 89
2019-11-03 08:00:00 9.8 33 Oeste 62 Oeste 3 -- -- 92
2019-11-03 07:00:00 10.2 41 Oeste 75 Oeste 0.8 -- -- 89
2019-11-03 06:00:00 10.2 47 Oeste 80 Oeste 0.2 -- -- 87
2019-11-03 05:00:00 10.1 46 Oeste 83 Sudoeste 0.2 -- -- 86
2019-11-03 04:00:00 10.1 53 Oeste 88 Sudoeste 0.2 -- -- 84
2019-11-03 03:00:00 9.5 48 Oeste 87 Sudoeste 0.4 -- -- 86
2019-11-03 02:00:00 9.7 42 Oeste 82 Oeste 0.2 -- -- 85
2019-11-03 01:00:00 9.8 33 Oeste 70 Oeste 0 -- -- 82
2019-11-03 00:00:00 10.4 37 Sudoeste 67 Sudoeste 0 -- -- 71
2019-11-02 23:00:00 10.5 31 Sudoeste 66 Sudoeste 0 -- -- 70
2019-11-02 22:00:00 10.6 27 Sudoeste 51 Sudoeste 0 -- -- 70
2019-11-02 21:00:00 11.3 32 Sudoeste 62 Sudoeste 0 -- -- 69
2019-11-02 20:00:00 11.6 29 Sudoeste 48 Oeste 0 -- -- 73
2019-11-02 19:00:00 12 31 Sudoeste 61 Sudoeste 0 -- -- 72
2019-11-02 18:00:00 12.5 27 Sudoeste 53 Sudoeste 0 -- -- 74
2019-11-02 17:00:00 12.7 27 Sudoeste 53 Oeste 0.2 -- -- 83
2019-11-02 16:00:00 14.3 18 Oeste 45 Sudoeste 0 -- -- 74
2019-11-02 15:00:00 15.3 19 Sudoeste 41 Oeste 0 -- -- 70
2019-11-02 14:00:00 15.4 24 Sudoeste 45 Sudoeste 0 -- -- 69
2019-11-02 13:00:00 14.2 17 Oeste 40 Oeste 0 -- -- 72
2019-11-02 12:00:00 14.2 21 Sudoeste 41 Sudoeste 0 -- -- 74
2019-11-02 11:00:00 13.3 18 Oeste 44 Sudoeste 0 -- -- 79
2019-11-02 10:00:00 13.1 17 Oeste 34 Sur 0.2 -- -- 82
2019-11-02 09:00:00 12.6 18 Oeste 41 Sudoeste 0 -- -- 82
2019-11-02 08:00:00 12.4 12 Oeste 44 Sudoeste 0 -- -- 81
2019-11-02 07:00:00 12.4 28 Sudoeste 49 Sudoeste 0 -- -- 78
2019-11-02 06:00:00 12.4 28 Sudoeste 48 Sudoeste 0 -- -- 80
2019-11-02 05:00:00 12.3 20 Oeste 46 Sudoeste 0 -- -- 83
2019-11-02 04:00:00 12.7 31 Sudoeste 52 Sudoeste 0 -- -- 76
2019-11-02 03:00:00 12.8 32 Sudoeste 51 Oeste 0.2 -- -- 79
2019-11-02 02:00:00 12.7 21 Oeste 52 Oeste 1.4 -- -- 84
2019-11-02 01:00:00 12.9 22 Sudoeste 45 Sudoeste 0.4 -- -- 85
2019-11-02 00:00:00 13 17 Oeste 45 Oeste 0 -- -- 83
2019-11-01 23:00:00 13.2 29 Oeste 55 Oeste 0.8 -- -- 83
2019-11-01 22:00:00 13 21 Oeste 51 Oeste 0 -- -- 85
2019-11-01 21:00:00 13 32 Sudoeste 52 Sudoeste 0.6 -- -- 84
2019-11-01 20:00:00 13.7 28 Oeste 47 Oeste 0.8 -- -- 86
2019-11-01 19:00:00 14.1 25 Oeste 49 Sudoeste 0 -- -- 84
2019-11-01 18:00:00 14.7 29 Oeste 57 Sudoeste 0 -- -- 80
2019-11-01 17:00:00 15.5 26 Oeste 56 Sudoeste 0 -- -- 78
2019-11-01 16:00:00 15.5 33 Oeste 59 Oeste 0.2 -- -- 79
2019-11-01 15:00:00 15.5 25 Oeste 45 Sudoeste 0.4 -- -- 83
2019-11-01 14:00:00 16.4 25 Oeste 50 Sudoeste 0 -- -- 76
2019-11-01 13:00:00 15.7 19 Oeste 35 Sudoeste 0.2 -- -- 84
2019-11-01 12:00:00 15.6 21 Oeste 42 Sudoeste 0 -- -- 83
2019-11-01 11:00:00 17.1 16 Oeste 42 Oeste 0 -- -- 74
2019-11-01 10:00:00 15.7 28 Oeste 50 Oeste 0 -- -- 81
2019-11-01 09:00:00 14.4 29 Oeste 51 Oeste 0 -- -- 85
2019-11-01 08:00:00 14 24 Oeste 42 Oeste 0 -- -- 87
2019-11-01 07:00:00 14.1 22 Oeste 36 Oeste 0 -- -- 87
2019-11-01 06:00:00 14.1 21 Oeste 44 Sudoeste 0 -- -- 87
2019-11-01 05:00:00 14 23 Oeste 42 Oeste 0 -- -- 90
2019-11-01 04:00:00 14 26 Oeste 42 Sudoeste 0 -- -- 87
2019-11-01 03:00:00 13.7 15 Oeste 34 Oeste 0 -- -- 92
2019-11-01 02:00:00 14 22 Oeste 37 Oeste 0 -- -- 89
2019-11-01 01:00:00 14.2 21 Oeste 37 Oeste 0 -- -- 88
2019-11-01 00:00:00 13.9 20 Oeste 35 Oeste 0.2 -- -- 89
2019-10-31 23:00:00 14 22 Oeste 37 Oeste 0 -- -- 90
2019-10-31 22:00:00 14.1 18 Oeste 37 Oeste 0 -- -- 88
2019-10-31 21:00:00 13.3 14 Oeste 30 Oeste 0 -- -- 92
2019-10-31 20:00:00 13.5 11 Oeste 20 Oeste 0.2 -- -- 92
2019-10-31 19:00:00 14.2 12 Oeste 28 Oeste 0 -- -- 88
2019-10-31 18:00:00 13.9 20 Oeste 34 Oeste 0 -- -- 82
2019-10-31 17:00:00 16.4 18 Oeste 43 Sudoeste 0 -- -- 67
2019-10-31 16:00:00 16.9 21 Oeste 37 Oeste 0 -- -- 62
2019-10-31 15:00:00 17 20 Oeste 31 Oeste 0 -- -- 57
2019-10-31 14:00:00 16.7 22 Oeste 37 Oeste 0 -- -- 64
2019-10-31 13:00:00 17.6 18 Oeste 31 Oeste 0 -- -- 57
2019-10-31 12:00:00 16.7 17 Oeste 30 Oeste 0 -- -- 59
2019-10-31 11:00:00 15.6 11 Oeste 26 Oeste 0 -- -- 63
2019-10-31 10:00:00 15.4 17 Oeste 27 Oeste 0 -- -- 64
2019-10-31 09:00:00 13 15 Oeste 25 Oeste 0 -- -- 81
2019-10-31 08:00:00 11.8 12 Oeste 25 Oeste 0 -- -- 86
2019-10-31 07:00:00 12 15 Oeste 28 Oeste 0 -- -- 86
2019-10-31 06:00:00 12.1 21 Oeste 36 Oeste 0 -- -- 83
2019-10-31 05:00:00 12.3 22 Noroeste 40 Oeste 0 -- -- 88
2019-10-31 04:00:00 12.4 25 Oeste 36 Noroeste 0 -- -- 87
2019-10-31 03:00:00 12.9 22 Oeste 32 Oeste 0 -- -- 88
2019-10-31 02:00:00 13.2 20 Oeste 34 Oeste 0 -- -- 88
2019-10-31 01:00:00 13.2 21 Oeste 34 Oeste 0 -- -- 90
2019-10-31 00:00:00 13.5 22 Oeste 41 Oeste 0 -- -- 87
2019-10-30 23:00:00 13.4 17 Oeste 41 Oeste 0 -- -- 90
2019-10-30 22:00:00 13.9 22 Oeste 40 Oeste 0 -- -- 86
2019-10-30 21:00:00 13 15 Oeste 22 Oeste 0 -- -- 91
2019-10-30 20:00:00 12.5 6 Este 12 Este 0 -- -- 90
2019-10-30 19:00:00 13 4 Este 11 Oeste 0 -- -- 86
2019-10-30 18:00:00 13.6 5 Noroeste 16 Oeste 0 -- -- 84
2019-10-30 17:00:00 14 11 Oeste 26 Sudoeste 0 -- -- 82
2019-10-30 16:00:00 14.1 13 Oeste 24 Oeste 0 -- -- 81
2019-10-30 15:00:00 15.1 15 Oeste 24 Oeste 0 -- -- 72
2019-10-30 14:00:00 14.8 14 Oeste 24 Oeste 0 -- -- 68
2019-10-30 13:00:00 14.5 14 Oeste 24 Oeste 0 -- -- 75
2019-10-30 12:00:00 15.5 8 Oeste 20 Oeste 0 -- -- 70
2019-10-30 11:00:00 14 3 Nordeste 5 Nordeste 0 -- -- 74
2019-10-30 10:00:00 11.9 3 Norte 5 Norte 0 -- -- 84
2019-10-30 09:00:00 11 0 Calma 12 Sur 0 -- -- 84
2019-10-30 08:00:00 8.5 3 Sudoeste 7 Sur 0 -- -- 91
2019-10-30 07:00:00 9.3 4 Oeste 14 Sur 0 -- -- 87
2019-10-30 06:00:00 9.3 4 Oeste 10 Noroeste 0 -- -- 89
2019-10-30 05:00:00 10 2 Sur 5 Sur 0 -- -- 87
2019-10-30 04:00:00 10.3 4 Sur 9 Noroeste 0 -- -- 83
2019-10-30 03:00:00 9.8 3 Sur 5 Sur 0 -- -- 86
2019-10-30 02:00:00 10.9 2 Oeste 7 Sur 0 -- -- 82
2019-10-30 01:00:00 10.8 3 Sur 5 Sur 0 -- -- 80
2019-10-30 00:00:00 10.6 3 Sudoeste 9 Oeste 0 -- -- 84
2019-10-29 23:00:00 11.3 6 Sur 9 Sur 0 -- -- 79
2019-10-29 22:00:00 11.3 5 Sur 6 Sur 0 -- -- 77
2019-10-29 21:00:00 11.1 5 Oeste 11 Sudoeste 0 -- -- 76
2019-10-29 20:00:00 12 7 Sur 10 Sur 0 -- -- 71
2019-10-29 19:00:00 12.1 2 Sudoeste 12 Oeste 0 -- -- 71
2019-10-29 18:00:00 13.3 8 Oeste 22 Oeste 0 -- -- 67
2019-10-29 17:00:00 16 21 Oeste 30 Oeste 0 -- -- 56
2019-10-29 16:00:00 16.5 18 Oeste 31 Oeste 0 -- -- 51
2019-10-29 15:00:00 16.6 18 Oeste 28 Oeste 0 -- -- 57
2019-10-29 14:00:00 16.2 17 Oeste 26 Oeste 0 -- -- 66
2019-10-29 13:00:00 15.5 14 Oeste 22 Oeste 0 -- -- 70
2019-10-29 12:00:00 14.6 14 Oeste 24 Oeste 0 -- -- 75
2019-10-29 11:00:00 13.4 10 Noroeste 18 Oeste 0 -- -- 82
2019-10-29 10:00:00 12.2 0 Calma 4 Noroeste 0 -- -- 90
2019-10-29 09:00:00 9.9 0 Calma 10 Oeste 0.2 -- -- 94
2019-10-29 08:00:00 9.3 4 Oeste 9 Oeste 0 -- -- 92
2019-10-29 07:00:00 9.6 0 Calma 8 Sur 0 -- -- 88
2019-10-29 06:00:00 9.6 6 Sur 11 Oeste 0 -- -- 88
2019-10-29 05:00:00 8.7 2 Sur 5 Sur 0 -- -- 90
2019-10-29 04:00:00 9.1 0 Calma 8 Sur 0 -- -- 87
2019-10-29 03:00:00 10.2 5 Sur 10 Sur 0 -- -- 83
2019-10-29 02:00:00 9.7 6 Sur 10 Sur 0 -- -- 86
2019-10-29 01:00:00 11 3 Sur 9 Oeste 0 -- -- 82
2019-10-29 00:00:00 10.4 2 Sudoeste 8 Sudoeste 0 -- -- 85
2019-10-28 23:00:00 11.3 7 Sudoeste 11 Sur 0 -- -- 82
2019-10-28 22:00:00 11.6 3 Sudoeste 8 Sur 0 -- -- 81
2019-10-28 21:00:00 12.1 8 Sur 10 Sudoeste 0 -- -- 82
2019-10-28 20:00:00 12.5 0 Calma 18 Oeste 0 -- -- 74
2019-10-28 19:00:00 13.5 14 Oeste 19 Oeste 0 -- -- 82
2019-10-28 18:00:00 15.5 6 Oeste 17 Oeste 0 -- -- 74
2019-10-28 17:00:00 17.8 15 Oeste 24 Oeste 0 -- -- 65
2019-10-28 16:00:00 18.7 13 Oeste 21 Oeste 0 -- -- 56
2019-10-28 15:00:00 19.3 9 Noroeste 18 Oeste 0 -- -- 58
2019-10-28 14:00:00 19.4 4 Oeste 12 Sudoeste 0 -- -- 50
2019-10-28 13:00:00 19.5 4 Noroeste 9 Norte 0 -- -- 47
2019-10-28 12:00:00 18.2 4 Norte 8 Nordeste 0 -- -- 47
2019-10-28 11:00:00 16.6 2 Nordeste 5 Oeste 0 -- -- 54
2019-10-28 10:00:00 13.3 3 Sudoeste 7 Oeste 0 -- -- 66
2019-10-28 09:00:00 10.8 0 Calma 6 Sur 0 -- -- 74
2019-10-28 08:00:00 9.7 3 Sur 5 Sur 0 -- -- 70
2019-10-28 07:00:00 10.8 6 Sur 8 Sur 0 -- -- 65
2019-10-28 06:00:00 11.7 2 Oeste 6 Sur 0 -- -- 66
2019-10-28 05:00:00 11.8 3 Sur 10 Sudoeste 0 -- -- 67
2019-10-28 04:00:00 11.3 3 Oeste 9 Sur 0 -- -- 74
2019-10-28 03:00:00 11 2 Sur 10 Oeste 0 -- -- 76
2019-10-28 02:00:00 11.7 0 Calma 8 Sur 0 -- -- 71
2019-10-28 01:00:00 12.7 7 Sur 9 Sur 0 -- -- 63
2019-10-28 00:00:00 12.3 3 Sur 8 Sur 0 -- -- 68
2019-10-27 23:00:00 13.2 3 Sur 8 Sur 0 -- -- 65
2019-10-27 22:00:00 12.6 3 Noroeste 7 Sur 0 -- -- 70
2019-10-27 21:00:00 14.1 3 Oeste 11 Sur 0 -- -- 65
2019-10-27 20:00:00 14.2 0 Calma 12 Oeste 0 -- -- 64
2019-10-27 19:00:00 14.8 9 Oeste 15 Oeste 0 -- -- 62
2019-10-27 18:00:00 16.4 8 Oeste 13 Oeste 0 -- -- 57
2019-10-27 17:00:00 17.9 0 Calma 9 Nordeste 0 -- -- 53
2019-10-27 16:00:00 18.7 7 Este 11 Nordeste 0 -- -- 46
2019-10-27 15:00:00 19.6 3 Este 9 Este 0 -- -- 48
2019-10-27 14:00:00 18.2 3 Noroeste 6 Nordeste 0 -- -- 53
2019-10-27 13:00:00 16.9 0 Calma 7 Norte 0 -- -- 53
2019-10-27 12:00:00 17 6 Este 10 Este 0 -- -- 52
2019-10-27 11:00:00 13.4 0 Calma 4 Este 0 -- -- 66
2019-10-27 10:00:00 10.5 2 Sudeste 5 Noroeste 0 -- -- 74
2019-10-27 09:00:00 11.3 2 Sudeste 9 Sur 0 -- -- 63
2019-10-27 08:00:00 9 0 Calma 7 Sur 0 -- -- 66
2019-10-27 07:00:00 8.1 3 Sudoeste 6 Sur 0 -- -- 73
2019-10-27 06:00:00 8.4 2 Sur 10 Oeste 0 -- -- 71
2019-10-27 05:00:00 8.1 0 Calma 7 Oeste 0 -- -- 74
2019-10-27 04:00:00 8.1 4 Oeste 10 Sur 0 -- -- 75
2019-10-27 03:00:00 9.8 0 Calma 9 Sur 0 -- -- 70
2019-10-27 02:00:00 9.7 2 Sudoeste 9 Sur 0 -- -- 69
2019-10-27 01:00:00 10.4 5 Sudoeste 8 Sudoeste 0 -- -- 68
2019-10-27 00:00:00 10.7 0 Calma 10 Sur 0 -- -- 70
2019-10-26 23:00:00 12.8 6 Sur 10 Oeste 0 -- -- 60
2019-10-26 22:00:00 12.7 0 Calma 12 Sur 0 -- -- 64
2019-10-26 21:00:00 13.6 7 Sur 13 Sur 0 -- -- 61
2019-10-26 20:00:00 15.7 9 Sudoeste 17 Sur 0 -- -- 55
2019-10-26 19:00:00 17.6 8 Sur 27 Sur 0 -- -- 50
2019-10-26 18:00:00 20.2 9 Sur 19 Sur 0 -- -- 47
2019-10-26 17:00:00 21.2 3 Este 8 Este 0 -- -- 35
2019-10-26 16:00:00 20.9 3 Nordeste 9 Este 0 -- -- 35
2019-10-26 15:00:00 20.1 3 Nordeste 10 Norte 0 -- -- 36
2019-10-26 14:00:00 18.5 0 Calma 7 Este 0 -- -- 43
2019-10-26 13:00:00 15.7 3 Norte 7 Este 0 -- -- 56
2019-10-26 12:00:00 14.5 3 Este 6 Este 0 -- -- 55
2019-10-26 11:00:00 10.5 0 Calma 4 Oeste 0 -- -- 70
2019-10-26 10:00:00 8.2 0 Calma 8 Sur 0 -- -- 72
2019-10-26 09:00:00 6.7 3 Sur 10 Sur 0 -- -- 69
2019-10-26 08:00:00 7.6 4 Sur 13 Sur 0 -- -- 63
2019-10-26 07:00:00 7 4 Sudoeste 8 Sur 0 -- -- 65
2019-10-26 06:00:00 7 5 Sur 8 Oeste 0 -- -- 65
2019-10-26 05:00:00 6.7 2 Sudoeste 8 Sur 0 -- -- 69
2019-10-26 04:00:00 7.8 0 Calma 10 Sur 0 -- -- 61
2019-10-26 03:00:00 8.6 0 Calma 8 Sur 0 -- -- 63
2019-10-26 02:00:00 8.8 3 Oeste 8 Oeste 0 -- -- 68
2019-10-26 01:00:00 9.7 4 Sur 8 Sur 0 -- -- 70
2019-10-26 00:00:00 9.8 4 Oeste 6 Oeste 0 -- -- 76
2019-10-25 23:00:00 10.7 4 Sur 6 Sur 0 -- -- 74
2019-10-25 22:00:00 11.6 0 Calma 12 Sur 0 -- -- 74
2019-10-25 21:00:00 13.3 3 Oeste 14 Sudoeste 0 -- -- 67
2019-10-25 20:00:00 14.1 6 Sudoeste 15 Sur 0 -- -- 67
2019-10-25 19:00:00 16.1 7 Sudoeste 13 Norte 0 -- -- 64
2019-10-25 18:00:00 18.5 8 Norte 13 Norte 0 -- -- 59
2019-10-25 17:00:00 19.8 3 Sudeste 9 Norte 0 -- -- 46
2019-10-25 16:00:00 19.2 4 Norte 14 Nordeste 0 -- -- 45
2019-10-25 15:00:00 18.8 4 Norte 13 Este 0 -- -- 45
2019-10-25 14:00:00 18.1 5 Nordeste 9 Nordeste 0 -- -- 54
2019-10-25 13:00:00 16 2 Nordeste 6 Este 0 -- -- 67
2019-10-25 12:00:00 12.7 3 Este 6 Este 0 -- -- 81
2019-10-25 11:00:00 10.3 2 Este 5 Noroeste 0 -- -- 87
2019-10-25 10:00:00 7.2 0 Calma 5 Noroeste 0 -- -- 95
2019-10-25 09:00:00 4.7 3 Oeste 5 Sur 0 -- -- 98
2019-10-25 08:00:00 4.4 0 Calma 5 Sur 0 -- -- 97
2019-10-25 07:00:00 4.7 3 Sudoeste 7 Oeste 0 -- -- 97
2019-10-25 06:00:00 5.8 2 Sudoeste 7 Sur 0 -- -- 97
2019-10-25 05:00:00 6.4 3 Sudoeste 8 Sudoeste 0 -- -- 97
2019-10-25 04:00:00 6.8 4 Sur 8 Sur 0 -- -- 96
2019-10-25 03:00:00 7.6 4 Sur 8 Sur 0 -- -- 95
2019-10-25 02:00:00 8.3 4 Sur 6 Sur 0 -- -- 94
2019-10-25 01:00:00 8.6 0 Calma 4 Oeste 0 -- -- 94
2019-10-25 00:00:00 8.2 4 Oeste 6 Oeste 0 -- -- 95
2019-10-24 23:00:00 7.9 2 Oeste 5 Noroeste 0 -- -- 92
2019-10-24 22:00:00 8.7 0 Calma 9 Sur 0 -- -- 87
2019-10-24 21:00:00 9.3 6 Sur 11 Sur 0 -- -- 87
2019-10-24 20:00:00 10.5 3 Sudeste 17 Oeste 0 -- -- 85
2019-10-24 19:00:00 12 10 Oeste 25 Oeste 0 -- -- 79
2019-10-24 18:00:00 13.8 14 Oeste 24 Oeste 0 -- -- 69
2019-10-24 17:00:00 14.4 13 Oeste 26 Oeste 0 -- -- 69
2019-10-24 16:00:00 14 19 Oeste 33 Oeste 0 -- -- 66
2019-10-24 15:00:00 13 22 Oeste 38 Oeste 0 -- -- 64
2019-10-24 14:00:00 12.4 23 Oeste 33 Oeste 0 -- -- 54
2019-10-24 13:00:00 9.8 24 Oeste 38 Oeste 0 -- -- 71
2019-10-24 12:00:00 10.4 5 Sudoeste 12 Oeste 0 -- -- 67
2019-10-24 11:00:00 8.5 5 Oeste 15 Oeste 0 -- -- 76
2019-10-24 10:00:00 6.2 6 Oeste 42 Oeste 0 -- -- 83
2019-10-24 09:00:00 5.2 25 Oeste 46 Oeste 0.2 -- -- 83
2019-10-24 08:00:00 5.5 29 Oeste 42 Oeste 0 -- -- 84
2019-10-24 07:00:00 5.4 18 Oeste 29 Oeste 0 -- -- 87
2019-10-24 06:00:00 5.1 10 Oeste 21 Oeste 0 -- -- 89
2019-10-24 05:00:00 5.3 8 Oeste 16 Oeste 0 -- -- 94
2019-10-24 04:00:00 5.2 9 Oeste 25 Oeste 0.2 -- -- 94
2019-10-24 03:00:00 5.2 16 Oeste 28 Oeste 0.2 -- -- 93
2019-10-24 02:00:00 5.4 14 Oeste 24 Oeste 0.2 -- -- 95
2019-10-24 01:00:00 5.7 17 Oeste 25 Oeste 0 -- -- 94
2019-10-24 00:00:00 5.8 7 Noroeste 13 Oeste 0 -- -- 96
2019-10-23 23:00:00 5.8 7 Oeste 22 Oeste 0.4 -- -- 95
2019-10-23 22:00:00 5.9 13 Oeste 25 Oeste 0 -- -- 93
2019-10-23 21:00:00 5.9 16 Oeste 29 Oeste 0 -- -- 93
2019-10-23 20:00:00 6.1 17 Oeste 28 Oeste 0.2 -- -- 94
2019-10-23 19:00:00 6.3 17 Oeste 26 Oeste 0.2 -- -- 94
2019-10-23 18:00:00 6.6 14 Oeste 24 Oeste 0.2 -- -- 92
2019-10-23 17:00:00 6.8 13 Noroeste 22 Noroeste 0.2 -- -- 92
2019-10-23 16:00:00 6.5 12 Oeste 30 Noroeste 0.2 -- -- 93
2019-10-23 15:00:00 6.6 18 Noroeste 38 Noroeste 0 -- -- 93
2019-10-23 14:00:00 6.8 17 Oeste 32 Oeste 0.2 -- -- 94
2019-10-23 13:00:00 6.5 18 Oeste 33 Sudoeste 0 -- -- 88
2019-10-23 12:00:00 5.8 17 Oeste 25 Sudoeste 0.4 -- -- 91
2019-10-23 11:00:00 5.3 17 Oeste 32 Sudoeste 0.8 -- -- 92
2019-10-23 10:00:00 4.9 24 Oeste 37 Sudoeste 0.6 -- -- 89
2019-10-23 09:00:00 4.5 18 Oeste 29 Sudoeste 1 -- -- 89
2019-10-23 08:00:00 4.4 16 Oeste 32 Oeste 1.6 -- -- 90
2019-10-23 07:00:00 4.2 17 Oeste 30 Oeste 0 -- -- 89
2019-10-23 06:00:00 4.3 20 Oeste 36 Oeste 0.2 -- -- 88
2019-10-23 05:00:00 4.2 15 Oeste 26 Oeste 0.2 -- -- 91
2019-10-23 04:00:00 4.3 12 Oeste 20 Oeste 0.2 -- -- 92
2019-10-23 03:00:00 4.3 15 Noroeste 30 Noroeste 0.2 -- -- 90
2019-10-23 02:00:00 4.7 13 Noroeste 26 Noroeste 0.2 -- -- 91
2019-10-23 01:00:00 4.8 12 Noroeste 24 Oeste 1 -- -- 91
2019-10-23 00:00:00 4.7 10 Oeste 17 Noroeste 1.4 -- -- 90
2019-10-22 23:00:00 4.8 8 Sudoeste 12 Noroeste 1.4 -- -- 91
2019-10-22 22:00:00 5.2 4 Noroeste 18 Norte 1 -- -- 90
2019-10-22 21:00:00 5.8 2 Oeste 9 Sudoeste 0.4 -- -- 87
2019-10-22 20:00:00 5.8 5 Oeste 10 Noroeste 0 -- -- 88
2019-10-22 19:00:00 6.1 2 Norte 17 Nordeste 0.2 -- -- 87
2019-10-22 18:00:00 6.7 9 Norte 15 Norte 0 -- -- 82
2019-10-22 17:00:00 6.5 5 Este 24 Norte 0 -- -- 85
2019-10-22 16:00:00 6.8 19 Norte 26 Noroeste 0 -- -- 82
2019-10-22 15:00:00 9.1 8 Norte 17 Norte 0 -- -- 72
2019-10-22 14:00:00 9.8 4 Este 10 Este 0 -- -- 65
2019-10-22 13:00:00 9 2 Este 6 Este 0 -- -- 70
2019-10-22 12:00:00 6.7 2 Sudeste 7 Este 0 -- -- 90
2019-10-22 11:00:00 5.1 2 Sudoeste 5 Sur 0 -- -- 90
2019-10-22 10:00:00 2.7 3 Oeste 7 Norte 0 -- -- 89
2019-10-22 09:00:00 1.3 2 Oeste 6 Sudoeste 0 -- -- 92
2019-10-22 08:00:00 1.5 3 Sudeste 10 Sur 0 -- -- 92
2019-10-22 07:00:00 0.6 0 Calma 7 Sur 0 -- -- 94
2019-10-22 06:00:00 0.6 3 Sur 8 Sur 0 -- -- 94
2019-10-22 05:00:00 1.1 2 Sudoeste 9 Sudoeste 0 -- -- 94
2019-10-22 04:00:00 0.5 2 Sur 10 Sur 0 -- -- 94
2019-10-22 03:00:00 1.3 2 Sudeste 8 Sur 0 -- -- 93
2019-10-22 02:00:00 2.1 6 Sur 9 Sur 0 -- -- 95
2019-10-22 01:00:00 2.2 0 Calma 8 Sur 0 -- -- 93
2019-10-22 00:00:00 2.8 4 Sudoeste 8 Sur 0 -- -- 92